createdAt,value
2018-05-14T00:00:02.734Z,11.8
2018-05-14T00:15:03.110Z,11.8
2018-05-14T00:30:02.407Z,11.8
2018-05-14T00:45:02.605Z,11.7
2018-05-14T01:00:02.820Z,11.7
2018-05-14T01:15:03.165Z,11.7
2018-05-14T01:30:02.594Z,11.6
2018-05-14T01:45:02.820Z,11.6
2018-05-14T02:00:03.042Z,11.6
2018-05-14T02:15:02.458Z,11.6
2018-05-14T02:30:02.840Z,11.6
2018-05-14T02:45:03.166Z,11.6
2018-05-14T03:00:02.474Z,11.6
2018-05-14T03:15:02.792Z,11.6
2018-05-14T03:30:03.105Z,11.6
2018-05-14T03:45:02.438Z,11.6
2018-05-14T04:00:02.695Z,11.6
2018-05-14T04:15:02.953Z,11.6
2018-05-14T04:30:02.321Z,11.6
2018-05-14T04:45:02.628Z,11.6
2018-05-14T05:00:02.894Z,11.6
2018-05-14T05:15:03.113Z,11.6
2018-05-14T05:30:02.552Z,11.6
2018-05-14T05:45:02.897Z,11.6
2018-05-14T06:00:03.152Z,11.6
2018-05-14T06:15:02.524Z,11.6
2018-05-14T06:30:02.879Z,11.6
2018-05-14T06:45:03.124Z,11.6
2018-05-14T07:00:02.581Z,11.7
2018-05-14T07:15:02.889Z,11.8
2018-05-14T07:30:02.257Z,11.8
2018-05-14T07:45:02.517Z,11.8
2018-05-14T08:00:02.863Z,11.8
2018-05-14T08:15:03.252Z,11.9
2018-05-14T08:30:02.664Z,11.9
2018-05-14T08:45:02.949Z,12
2018-05-14T09:00:03.273Z,12
2018-05-14T09:15:02.618Z,12.1
2018-05-14T09:30:02.957Z,12.1
2018-05-14T09:45:02.358Z,12.2
2018-05-14T10:00:02.685Z,12.3
2018-05-14T10:15:02.887Z,12.4
2018-05-14T10:30:02.295Z,12.4
2018-05-14T10:45:02.585Z,12.6
2018-05-14T11:00:02.865Z,12.6
2018-05-14T11:15:03.112Z,12.7
2018-05-14T11:30:02.551Z,12.8
2018-05-14T11:45:02.846Z,12.9
2018-05-14T12:00:03.086Z,12.9
2018-05-14T12:15:02.491Z,13
2018-05-14T12:30:02.772Z,13
2018-05-14T12:45:03.043Z,13.1
2018-05-14T13:00:02.661Z,13.1
2018-05-14T13:15:02.951Z,13.2
2018-05-14T13:30:02.331Z,13.2
2018-05-14T13:45:02.769Z,13.2
2018-05-14T14:00:03.070Z,13.2
2018-05-14T14:15:02.379Z,13.3
2018-05-14T14:30:02.658Z,13.3
2018-05-14T14:45:02.861Z,13.2
2018-05-14T15:00:03.132Z,13.2
2018-05-14T15:15:02.462Z,13.2
2018-05-14T15:30:02.794Z,13.2
2018-05-14T15:45:03.132Z,13.1
2018-05-14T16:00:02.430Z,13.1
2018-05-14T16:15:02.640Z,13
2018-05-14T16:30:02.977Z,12.9
2018-05-14T16:45:02.191Z,12.8
2018-05-14T17:00:02.422Z,12.8
2018-05-14T17:15:02.718Z,12.6
2018-05-14T17:30:03.007Z,12.6
2018-05-14T17:45:02.271Z,12.5
2018-05-14T18:00:02.487Z,12.4
2018-05-14T18:15:02.780Z,12.3
2018-05-14T18:30:03.099Z,12.2
2018-05-14T18:45:02.469Z,12.2
2018-05-14T19:00:02.770Z,12.1
2018-05-14T19:15:03.074Z,12.1
2018-05-14T19:30:02.465Z,11.9
2018-05-14T19:45:02.991Z,11.9
2018-05-14T20:00:02.275Z,11.8
2018-05-14T20:15:02.487Z,11.8
2018-05-14T20:30:02.807Z,11.8
2018-05-14T20:45:03.021Z,11.7
2018-05-14T21:00:02.287Z,11.6
2018-05-14T21:15:02.495Z,11.6
2018-05-14T21:30:02.792Z,11.5
2018-05-14T21:45:03.012Z,11.5
2018-05-14T22:00:02.571Z,11.5
2018-05-14T22:15:02.863Z,11.4
2018-05-14T22:30:03.265Z,11.4
2018-05-14T22:45:02.533Z,11.4
2018-05-14T23:00:02.981Z,11.4
2018-05-14T23:15:02.263Z,11.4
2018-05-14T23:30:02.576Z,11.4
2018-05-14T23:45:02.858Z,11.4
